Time;durP1;ratioP1;P1;durP2;ratioP2;P2;SDS_P1;SDS_P2;PMS_P1;PMS_P2;Temp;Humidity;BMP_temperature;BMP_pressure;BME280_temperature;BME280_humidity;BME280_pressure;Samples;Min_cycle;Max_cycle;Signal;HPM_P1;HPM_P2
2021/06/22 00:01:03;;;;;;;5.00;4.53;;;15.50;99.90;;;;;;5033674;28;20736;-79
2021/06/22 00:03:29;;;;;;;6.28;4.70;;;15.60;99.90;;;;;;5022544;28;20183;-80
2021/06/22 00:05:55;;;;;;;5.15;4.55;;;15.60;99.90;;;;;;5028061;28;20168;-80
2021/06/22 00:08:21;;;;;;;6.43;4.20;;;15.50;99.90;;;;;;5012728;28;20272;-87
2021/06/22 00:10:46;;;;;;;4.25;3.85;;;15.40;99.90;;;;;;5001692;28;20180;-82
2021/06/22 00:13:12;;;;;;;8.68;4.50;;;15.50;99.90;;;;;;5005058;28;20201;-81
2021/06/22 00:15:38;;;;;;;8.63;4.57;;;15.50;99.90;;;;;;5016488;28;20177;-81
2021/06/22 00:18:04;;;;;;;6.85;4.38;;;15.30;99.90;;;;;;5013530;28;20191;-80
2021/06/22 00:20:30;;;;;;;4.82;4.32;;;15.30;99.90;;;;;;5014058;28;20165;-80
2021/06/22 00:22:56;;;;;;;4.88;4.18;;;15.40;99.90;;;;;;5020250;28;20625;-80
2021/06/22 00:25:23;;;;;;;8.95;4.47;;;15.50;99.90;;;;;;5015459;28;20204;-84
2021/06/22 00:27:50;;;;;;;5.03;3.92;;;15.50;99.90;;;;;;5014980;28;20165;-81
2021/06/22 00:30:16;;;;;;;5.68;4.88;;;15.50;99.90;;;;;;5013738;28;20169;-80
2021/06/22 00:32:42;;;;;;;4.68;4.25;;;15.40;99.90;;;;;;5018903;28;20563;-80
2021/06/22 00:35:10;;;;;;;5.50;4.45;;;15.40;99.90;;;;;;5030789;28;20212;-80
2021/06/22 00:37:35;;;;;;;9.55;4.47;;;15.40;99.90;;;;;;5015766;28;20168;-81
2021/06/22 00:40:01;;;;;;;5.07;4.07;;;15.40;99.90;;;;;;5016188;28;20528;-80
2021/06/22 00:42:27;;;;;;;4.43;3.70;;;15.40;99.90;;;;;;5016992;28;20172;-80
2021/06/22 00:44:58;;;;;;;8.68;4.93;;;15.40;99.90;;;;;;5047713;28;20227;-81
2021/06/22 00:47:25;;;;;;;9.63;4.22;;;15.40;99.90;;;;;;5014057;28;20235;-81
2021/06/22 00:49:52;;;;;;;4.53;3.97;;;15.40;99.90;;;;;;5013818;28;20251;-79
2021/06/22 00:52:28;;;;;;;4.60;3.97;;;15.30;99.90;;;;;;5017011;28;20259;-81
2021/06/22 00:54:54;;;;;;;4.45;3.85;;;15.30;99.90;;;;;;5013989;28;20564;-81
2021/06/22 00:57:21;;;;;;;6.90;4.32;;;15.30;99.90;;;;;;5015339;28;20169;-81
2021/06/22 00:59:47;;;;;;;8.35;4.07;;;15.30;99.90;;;;;;5015263;28;20172;-82
2021/06/22 01:02:13;;;;;;;8.10;4.10;;;15.30;99.90;;;;;;5045340;28;20267;-80
2021/06/22 01:04:39;;;;;;;11.20;4.18;;;15.30;99.90;;;;;;5014208;28;20259;-81
2021/06/22 01:07:05;;;;;;;7.53;4.03;;;15.40;99.90;;;;;;5013446;28;20191;-81
2021/06/22 01:09:31;;;;;;;7.20;4.30;;;15.60;99.90;;;;;;5014231;28;20169;-81
2021/06/22 01:11:58;;;;;;;8.07;4.18;;;15.50;99.90;;;;;;5047752;28;20270;-81
2021/06/22 01:14:27;;;;;;;12.20;4.75;;;15.50;99.90;;;;;;5013625;28;20268;-81
2021/06/22 01:16:54;;;;;;;7.53;4.25;;;15.50;99.90;;;;;;5014418;28;20200;-80
2021/06/22 01:19:20;;;;;;;6.20;4.38;;;15.50;99.90;;;;;;5012408;28;20176;-80
2021/06/22 01:21:47;;;;;;;6.55;4.30;;;15.50;99.90;;;;;;5015339;28;20207;-80
2021/06/22 01:24:17;;;;;;;6.15;3.97;;;15.50;99.90;;;;;;5013310;28;20172;-81
2021/06/22 01:26:49;;;;;;;7.95;4.15;;;15.50;99.90;;;;;;5013020;28;20207;-81
2021/06/22 01:29:15;;;;;;;7.07;3.97;;;15.50;99.90;;;;;;5015389;28;20160;-81
2021/06/22 01:31:42;;;;;;;5.70;3.28;;;15.50;99.90;;;;;;5003802;28;20173;-81
2021/06/22 01:34:07;;;;;;;8.50;4.07;;;15.50;99.90;;;;;;5014945;28;20197;-81
2021/06/22 01:36:35;;;;;;;7.88;3.78;;;15.50;99.90;;;;;;5014503;28;20176;-81
2021/06/22 01:39:01;;;;;;;5.90;4.28;;;15.50;99.90;;;;;;5014738;28;20165;-82
2021/06/22 01:41:27;;;;;;;6.82;4.22;;;15.50;99.90;;;;;;5014767;28;20176;-79
2021/06/22 01:43:53;;;;;;;6.35;4.03;;;15.30;99.90;;;;;;5012047;28;20693;-82
2021/06/22 01:46:19;;;;;;;9.75;4.35;;;15.20;99.90;;;;;;4995556;28;20173;-81
2021/06/22 01:48:45;;;;;;;3.70;3.30;;;15.20;99.90;;;;;;5010893;28;20209;-82
2021/06/22 01:51:11;;;;;;;5.38;3.83;;;15.10;99.90;;;;;;5014842;28;20189;-81
2021/06/22 01:53:37;;;;;;;7.55;4.00;;;15.00;99.90;;;;;;5028849;28;20240;-81
2021/06/22 01:56:03;;;;;;;4.78;3.90;;;15.10;99.90;;;;;;5012387;28;20196;-81
2021/06/22 01:58:29;;;;;;;7.68;3.75;;;15.10;99.90;;;;;;5013983;28;20685;-82
2021/06/22 02:00:57;;;;;;;7.30;3.85;;;15.10;99.90;;;;;;5046070;28;20275;-80
2021/06/22 02:03:26;;;;;;;6.25;3.83;;;15.10;99.90;;;;;;5013892;28;20243;-81
2021/06/22 02:05:52;;;;;;;8.63;3.80;;;15.20;99.90;;;;;;5019802;28;20195;-81
2021/06/22 02:08:19;;;;;;;9.55;4.00;;;15.10;99.90;;;;;;5014179;28;20180;-81
2021/06/22 02:10:46;;;;;;;10.50;3.55;;;14.90;99.90;;;;;;5014382;28;20606;-80
2021/06/22 02:13:13;;;;;;;8.10;4.13;;;14.90;99.90;;;;;;5012301;28;20215;-81
2021/06/22 02:15:40;;;;;;;9.10;4.38;;;14.90;99.90;;;;;;5014119;28;20180;-81
2021/06/22 02:18:06;;;;;;;9.55;4.43;;;14.90;99.90;;;;;;4996624;28;20172;-81
2021/06/22 02:20:32;;;;;;;4.50;3.70;;;14.90;99.90;;;;;;5013771;28;20195;-80
2021/06/22 02:22:58;;;;;;;7.85;4.32;;;14.90;99.90;;;;;;5022578;28;20629;-80
2021/06/22 02:25:24;;;;;;;8.75;3.67;;;15.00;99.90;;;;;;5013352;28;20180;-85
2021/06/22 02:27:59;;;;;;;5.20;3.33;;;15.00;99.90;;;;;;5012877;28;20172;-80
2021/06/22 02:30:24;;;;;;;8.77;4.35;;;15.00;99.90;;;;;;5012218;28;20230;-81
2021/06/22 02:32:50;;;;;;;9.02;3.70;;;15.00;99.90;;;;;;5015262;28;20211;-80
2021/06/22 02:35:16;;;;;;;9.68;4.00;;;15.00;99.90;;;;;;5013428;28;20235;-80
2021/06/22 02:37:42;;;;;;;10.20;3.78;;;15.00;99.90;;;;;;5014107;28;20164;-79
2021/06/22 02:40:10;;;;;;;9.10;3.72;;;14.80;99.90;;;;;;5013422;28;20181;-80
2021/06/22 02:42:36;;;;;;;7.32;3.53;;;14.60;99.90;;;;;;5014672;28;20179;-83
2021/06/22 02:45:02;;;;;;;6.18;3.55;;;14.60;99.90;;;;;;5012679;28;20185;-80
2021/06/22 02:47:28;;;;;;;4.95;3.47;;;14.60;99.90;;;;;;5013227;28;20263;-80
2021/06/22 02:49:53;;;;;;;9.07;3.47;;;14.50;99.90;;;;;;5013378;28;20589;-79
2021/06/22 02:52:19;;;;;;;5.10;3.50;;;14.50;99.90;;;;;;5011887;28;20180;-79
2021/06/22 02:54:45;;;;;;;10.07;4.50;;;14.40;99.90;;;;;;5013462;28;20266;-79
2021/06/22 02:57:11;;;;;;;8.77;4.28;;;14.40;99.90;;;;;;5013429;28;20268;-79
2021/06/22 02:59:39;;;;;;;4.70;4.07;;;14.40;99.90;;;;;;5012334;28;20164;-79
2021/06/22 03:02:05;;;;;;;5.85;3.92;;;14.40;99.90;;;;;;5012162;28;20176;-79
2021/06/22 03:04:31;;;;;;;5.07;4.00;;;14.30;99.90;;;;;;5005733;28;20180;-80
2021/06/22 03:06:57;;;;;;;5.65;3.92;;;14.30;99.90;;;;;;5012215;28;20176;-79
2021/06/22 03:09:23;;;;;;;10.55;4.30;;;14.30;99.90;;;;;;5012208;28;20161;-79
2021/06/22 03:11:50;;;;;;;10.18;4.22;;;14.30;99.90;;;;;;5012520;28;20185;-83
2021/06/22 03:14:17;;;;;;;7.20;3.35;;;14.30;99.90;;;;;;5028379;28;20232;-79
2021/06/22 03:16:43;;;;;;;9.07;4.32;;;14.20;99.90;;;;;;5012688;28;20172;-79
2021/06/22 03:19:09;;;;;;;11.50;4.45;;;14.10;99.90;;;;;;5007492;28;20515;-79
2021/06/22 03:21:36;;;;;;;10.43;4.60;;;14.10;99.90;;;;;;5017327;28;20243;-79
2021/06/22 03:24:02;;;;;;;6.40;4.03;;;14.20;99.90;;;;;;5012102;28;20518;-82
2021/06/22 03:26:27;;;;;;;7.30;3.85;;;14.30;99.90;;;;;;5011531;28;20177;-79
2021/06/22 03:28:53;;;;;;;8.02;4.35;;;14.30;99.90;;;;;;5011355;28;20184;-80
2021/06/22 03:31:19;;;;;;;7.60;4.00;;;14.30;99.90;;;;;;5013888;28;20184;-80
2021/06/22 03:33:44;;;;;;;10.02;4.40;;;14.30;99.90;;;;;;5013493;28;20239;-78
2021/06/22 03:36:10;;;;;;;5.93;4.70;;;14.30;99.90;;;;;;5012986;28;20227;-79
2021/06/22 03:38:36;;;;;;;9.30;4.63;;;14.30;99.90;;;;;;5043773;28;20710;-79
2021/06/22 03:41:01;;;;;;;7.82;4.20;;;14.30;99.90;;;;;;5014143;28;20165;-80
2021/06/22 03:43:27;;;;;;;5.75;4.30;;;14.40;99.90;;;;;;5017883;28;20176;-80
2021/06/22 03:45:53;;;;;;;9.20;4.63;;;14.40;99.90;;;;;;5031941;28;20226;-79
2021/06/22 03:48:19;;;;;;;9.55;4.70;;;14.60;99.90;;;;;;5016904;28;20554;-80
2021/06/22 03:50:45;;;;;;;6.10;4.20;;;14.60;99.90;;;;;;5017268;28;20705;-79
2021/06/22 03:53:11;;;;;;;9.43;4.50;;;14.60;99.90;;;;;;5046874;28;20200;-79
2021/06/22 03:55:36;;;;;;;10.27;4.75;;;14.70;99.90;;;;;;5015846;28;20177;-78
2021/06/22 03:58:04;;;;;;;7.45;4.93;;;14.80;99.90;;;;;;5016709;28;20276;-80
2021/06/22 04:00:30;;;;;;;13.45;5.00;;;14.90;99.90;;;;;;5016733;28;20185;-80
2021/06/22 04:02:58;;;;;;;13.60;5.30;;;15.00;99.90;;;;;;5018084;28;20173;-80
2021/06/22 04:05:28;;;;;;;9.65;5.10;;;15.00;99.90;;;;;;5014734;28;20642;-79
2021/06/22 04:07:54;;;;;;;8.38;4.97;;;15.10;99.90;;;;;;5031446;28;20648;-79
2021/06/22 04:10:20;;;;;;;8.88;5.00;;;15.00;99.90;;;;;;5048377;28;20177;-79
2021/06/22 04:12:45;;;;;;;14.40;4.63;;;15.10;99.90;;;;;;5060816;28;20724;-79
2021/06/22 04:15:12;;;;;;;9.02;4.13;;;15.10;99.90;;;;;;5020227;28;20681;-79
2021/06/22 04:17:37;;;;;;;9.32;4.30;;;15.00;99.90;;;;;;5014270;28;20604;-79
2021/06/22 04:20:05;;;;;;;13.05;4.18;;;14.90;99.90;;;;;;5015283;28;20172;-79
2021/06/22 04:22:30;;;;;;;7.65;4.53;;;14.90;99.90;;;;;;5015564;28;20173;-79
2021/06/22 04:24:56;;;;;;;10.60;4.40;;;14.80;99.90;;;;;;5047141;28;20263;-80
2021/06/22 04:27:22;;;;;;;17.00;4.97;;;14.80;99.90;;;;;;5013786;28;20537;-79
2021/06/22 04:29:48;;;;;;;10.52;4.90;;;14.80;99.90;;;;;;5016944;28;20157;-79
2021/06/22 04:32:14;;;;;;;10.57;4.70;;;14.70;99.90;;;;;;5021287;28;20248;-79
2021/06/22 04:34:40;;;;;;;14.85;5.00;;;14.70;99.90;;;;;;5016146;28;20303;-79
2021/06/22 04:37:05;;;;;;;8.77;4.47;;;14.50;99.90;;;;;;5047523;28;20177;-79
2021/06/22 04:39:31;;;;;;;13.90;5.53;;;14.50;99.90;;;;;;5048087;28;20173;-80
2021/06/22 04:41:57;;;;;;;11.15;4.90;;;14.50;99.90;;;;;;5031839;28;20520;-79
2021/06/22 04:44:22;;;;;;;16.77;5.75;;;14.40;99.90;;;;;;5015732;28;20193;-79
2021/06/22 04:46:48;;;;;;;9.63;4.80;;;14.40;99.90;;;;;;5015607;28;20165;-79
2021/06/22 04:49:13;;;;;;;13.95;5.82;;;14.40;99.90;;;;;;5016359;28;20164;-79
2021/06/22 04:51:39;;;;;;;14.77;5.25;;;14.30;99.90;;;;;;5031429;28;20196;-79
2021/06/22 04:54:07;;;;;;;13.50;5.20;;;14.20;99.90;;;;;;5013477;28;20209;-84
2021/06/22 04:56:33;;;;;;;16.00;5.75;;;14.10;99.90;;;;;;5014691;28;20177;-79
2021/06/22 04:59:00;;;;;;;17.25;5.75;;;14.20;99.90;;;;;;5014497;28;20169;-79
2021/06/22 05:01:26;;;;;;;15.07;5.82;;;14.10;99.90;;;;;;5016127;28;20609;-79
2021/06/22 05:03:52;;;;;;;10.20;5.10;;;14.20;99.90;;;;;;5015712;28;20261;-79
2021/06/22 05:06:18;;;;;;;13.52;5.57;;;14.10;99.90;;;;;;5015172;28;20585;-80
2021/06/22 05:08:44;;;;;;;17.75;6.05;;;14.00;99.90;;;;;;5014452;28;20208;-79
2021/06/22 05:11:10;;;;;;;9.88;5.50;;;14.00;99.90;;;;;;5015172;28;20621;-82
2021/06/22 05:13:36;;;;;;;15.35;5.63;;;14.00;99.90;;;;;;5014872;28;20211;-79
2021/06/22 05:16:03;;;;;;;20.15;6.35;;;13.90;99.90;;;;;;5015493;28;20168;-79
2021/06/22 05:18:29;;;;;;;13.38;6.35;;;14.00;99.90;;;;;;5009003;28;20177;-79
2021/06/22 05:20:54;;;;;;;10.85;6.18;;;14.10;99.90;;;;;;5016587;28;20513;-80
2021/06/22 05:23:20;;;;;;;15.20;6.95;;;14.20;99.90;;;;;;5009362;28;20203;-81
2021/06/22 05:25:46;;;;;;;11.85;6.45;;;14.20;99.90;;;;;;5007243;28;20173;-79
2021/06/22 05:28:12;;;;;;;15.52;6.45;;;14.20;99.90;;;;;;5047706;28;20629;-79
2021/06/22 05:30:39;;;;;;;15.32;7.18;;;13.90;99.90;;;;;;5013272;28;20181;-79
2021/06/22 05:33:05;;;;;;;16.98;6.70;;;13.70;99.90;;;;;;5042456;28;20187;-79
2021/06/22 05:35:31;;;;;;;13.32;6.90;;;13.70;99.90;;;;;;5015146;28;20168;-82
2021/06/22 05:37:57;;;;;;;12.73;7.32;;;13.60;99.90;;;;;;5047017;28;20197;-78
2021/06/22 05:40:23;;;;;;;10.45;7.22;;;13.60;99.90;;;;;;5014393;28;20228;-80
2021/06/22 05:42:49;;;;;;;10.60;7.43;;;13.60;99.90;;;;;;5014313;28;20184;-78
2021/06/22 05:45:14;;;;;;;22.88;8.70;;;13.60;99.90;;;;;;5015162;28;20169;-78
2021/06/22 05:47:40;;;;;;;15.25;7.78;;;13.70;99.90;;;;;;5014496;28;20268;-79
2021/06/22 05:50:07;;;;;;;13.88;7.20;;;13.60;99.90;;;;;;5015050;28;20583;-78
2021/06/22 05:52:32;;;;;;;24.60;8.32;;;13.50;99.90;;;;;;5014932;28;20251;-80
2021/06/22 05:54:58;;;;;;;16.08;8.25;;;13.50;99.90;;;;;;5012430;28;20664;-79
2021/06/22 05:57:24;;;;;;;19.52;8.40;;;13.60;99.90;;;;;;5025517;28;20176;-79
2021/06/22 05:59:49;;;;;;;18.65;8.38;;;13.60;99.90;;;;;;5019107;28;20587;-79
2021/06/22 06:02:15;;;;;;;24.58;8.68;;;13.60;99.90;;;;;;5015527;28;20685;-79
2021/06/22 06:04:42;;;;;;;17.42;8.18;;;13.50;99.90;;;;;;5014888;28;20667;-79
2021/06/22 06:07:07;;;;;;;23.17;8.63;;;13.50;99.90;;;;;;5012534;28;20204;-79
2021/06/22 06:09:33;;;;;;;16.75;9.20;;;13.50;99.90;;;;;;5014049;28;20219;-80
2021/06/22 06:11:59;;;;;;;22.52;7.93;;;13.40;99.90;;;;;;5014885;28;20193;-79
2021/06/22 06:14:24;;;;;;;18.40;8.73;;;13.30;99.90;;;;;;5018775;28;20287;-79
2021/06/22 06:16:50;;;;;;;18.42;8.05;;;13.20;99.90;;;;;;5016200;28;20188;-79
2021/06/22 06:19:16;;;;;;;17.58;8.95;;;13.30;99.90;;;;;;5008158;28;20175;-78
2021/06/22 06:21:41;;;;;;;17.23;8.50;;;13.30;99.90;;;;;;5013308;28;20177;-80
2021/06/22 06:24:11;;;;;;;11.48;8.07;;;13.30;99.90;;;;;;5044639;28;20181;-79
2021/06/22 06:29:21;;;;;;;23.77;8.38;;;13.50;99.90;;;;;;4997522;28;20187;-78
2021/06/22 06:31:47;;;;;;;16.85;8.60;;;13.60;99.90;;;;;;5014526;28;20159;-79
2021/06/22 06:34:12;;;;;;;22.33;8.20;;;13.60;99.90;;;;;;5014318;28;20253;-79
2021/06/22 06:36:38;;;;;;;12.73;7.50;;;13.60;99.90;;;;;;5046009;28;20176;-83
2021/06/22 06:39:04;;;;;;;15.80;7.72;;;13.50;99.90;;;;;;5013472;28;20169;-80
2021/06/22 06:41:29;;;;;;;15.57;7.30;;;13.40;99.90;;;;;;5015133;28;20520;-80
2021/06/22 06:43:55;;;;;;;14.98;8.25;;;13.40;99.90;;;;;;5013578;28;20560;-80
2021/06/22 06:46:21;;;;;;;13.32;6.60;;;13.50;99.90;;;;;;5045837;28;20614;-80
2021/06/22 06:48:46;;;;;;;21.77;7.85;;;13.60;99.90;;;;;;5012123;28;20181;-80
2021/06/22 06:51:12;;;;;;;10.43;7.00;;;13.60;99.90;;;;;;5019244;28;20183;-79
2021/06/22 06:53:38;;;;;;;28.65;7.93;;;13.60;99.90;;;;;;5030882;28;20223;-79
2021/06/22 06:56:03;;;;;;;15.18;7.32;;;13.80;99.90;;;;;;5040620;28;20204;-79
2021/06/22 06:58:29;;;;;;;18.67;8.02;;;13.80;99.90;;;;;;5009742;28;20184;-79
2021/06/22 07:00:55;;;;;;;13.18;6.80;;;13.80;99.90;;;;;;4997310;28;20505;-79
2021/06/22 07:03:20;;;;;;;22.08;7.18;;;13.70;99.90;;;;;;5039322;28;20169;-79
2021/06/22 07:05:46;;;;;;;16.58;7.28;;;13.80;99.90;;;;;;5014074;28;20488;-82
2021/06/22 07:08:12;;;;;;;13.20;6.15;;;13.90;99.90;;;;;;5012630;28;20160;-80
2021/06/22 07:10:38;;;;;;;19.25;7.15;;;13.80;99.90;;;;;;5012390;28;20255;-79
2021/06/22 07:13:12;;;;;;;15.40;6.80;;;13.70;99.90;;;;;;5044742;28;20176;-79
2021/06/22 07:15:38;;;;;;;12.35;6.85;;;13.70;99.90;;;;;;5012293;28;20708;-79
2021/06/22 07:18:03;;;;;;;17.17;7.20;;;13.90;99.90;;;;;;5002664;28;20256;-79
2021/06/22 07:20:29;;;;;;;14.02;7.28;;;13.90;99.90;;;;;;5009250;28;20173;-79
2021/06/22 07:22:55;;;;;;;18.75;7.93;;;14.10;99.90;;;;;;5012513;28;20165;-79
2021/06/22 07:25:25;;;;;;;13.45;6.18;;;14.20;99.90;;;;;;5017006;28;20259;-78
2021/06/22 07:27:51;;;;;;;9.80;6.97;;;14.30;99.90;;;;;;5032692;28;20208;-79
2021/06/22 07:30:17;;;;;;;22.20;8.18;;;14.40;99.90;;;;;;5014886;28;20172;-78
2021/06/22 07:32:43;;;;;;;16.75;7.40;;;14.30;99.90;;;;;;5012251;28;20161;-77
2021/06/22 07:35:10;;;;;;;18.23;8.10;;;14.50;99.90;;;;;;5011864;28;20526;-78
2021/06/22 07:37:36;;;;;;;13.27;7.95;;;14.60;99.90;;;;;;5011932;28;20222;-78
2021/06/22 07:40:02;;;;;;;13.93;7.05;;;14.70;99.90;;;;;;5013486;28;20243;-79
2021/06/22 07:42:27;;;;;;;15.30;8.60;;;14.70;99.90;;;;;;5017153;28;20267;-79
2021/06/22 07:44:53;;;;;;;12.70;7.88;;;14.90;99.90;;;;;;5012483;28;20631;-79
2021/06/22 07:47:19;;;;;;;16.10;8.82;;;14.60;99.90;;;;;;5013643;28;20243;-79
2021/06/22 07:49:44;;;;;;;18.67;9.23;;;14.40;99.90;;;;;;5039138;28;20200;-78
2021/06/22 07:52:10;;;;;;;15.30;7.78;;;14.50;99.90;;;;;;5018372;28;20191;-78
2021/06/22 07:54:36;;;;;;;18.25;8.50;;;14.50;99.90;;;;;;5013049;28;20204;-79
2021/06/22 07:57:02;;;;;;;15.60;8.13;;;14.70;99.90;;;;;;5021295;28;20188;-78
2021/06/22 07:59:28;;;;;;;15.73;8.82;;;14.60;99.90;;;;;;5014409;28;20169;-79
2021/06/22 08:01:54;;;;;;;18.55;7.70;;;14.70;99.90;;;;;;5034522;28;20176;-79
2021/06/22 08:04:20;;;;;;;14.88;8.30;;;14.80;99.90;;;;;;5013169;28;20231;-79
2021/06/22 08:06:45;;;;;;;15.52;9.57;;;15.00;99.90;;;;;;5028392;28;20180;-79
2021/06/22 08:09:11;;;;;;;14.63;8.40;;;15.10;99.90;;;;;;5012188;28;20200;-79
2021/06/22 08:11:37;;;;;;;15.50;8.13;;;15.10;99.90;;;;;;5022719;28;20180;-81
2021/06/22 08:14:03;;;;;;;16.40;9.23;;;15.20;99.90;;;;;;5012966;28;20200;-80
2021/06/22 08:16:28;;;;;;;17.10;8.75;;;15.20;99.90;;;;;;5012988;28;20179;-78
2021/06/22 08:18:54;;;;;;;14.75;8.35;;;15.20;99.90;;;;;;5012855;28;20165;-78
2021/06/22 08:21:20;;;;;;;16.70;8.25;;;15.10;99.90;;;;;;5014733;28;20173;-77
2021/06/22 08:23:45;;;;;;;16.52;8.82;;;15.20;99.90;;;;;;5013883;28;20195;-77
2021/06/22 08:26:11;;;;;;;14.80;8.93;;;15.20;99.90;;;;;;5012894;28;20375;-79
2021/06/22 08:28:37;;;;;;;12.05;7.95;;;15.30;99.90;;;;;;5014412;28;20167;-78
2021/06/22 08:31:03;;;;;;;15.90;8.38;;;15.10;99.90;;;;;;5015608;28;20246;-78
2021/06/22 08:33:29;;;;;;;18.13;8.60;;;14.90;99.90;;;;;;5015117;28;20660;-78
2021/06/22 08:35:54;;;;;;;11.48;7.88;;;15.40;99.90;;;;;;5031512;28;20617;-79
2021/06/22 08:38:20;;;;;;;13.30;7.72;;;15.80;99.90;;;;;;4998979;28;20161;-78
2021/06/22 08:40:47;;;;;;;16.13;7.30;;;16.20;99.90;;;;;;5031335;28;20183;-78
2021/06/22 08:43:14;;;;;;;11.02;7.00;;;16.20;99.90;;;;;;5025199;28;20176;-79
2021/06/22 08:45:40;;;;;;;12.50;7.35;;;16.10;99.90;;;;;;5034327;28;20174;-78
2021/06/22 08:48:09;;;;;;;14.73;7.18;;;16.00;99.90;;;;;;5035844;28;20187;-78
2021/06/22 08:50:36;;;;;;;18.42;7.22;;;16.00;99.90;;;;;;5034544;28;20164;-79
2021/06/22 08:53:02;;;;;;;14.55;7.18;;;16.10;99.90;;;;;;5034159;28;20172;-82
2021/06/22 08:55:31;;;;;;;17.85;6.57;;;16.20;99.90;;;;;;5035806;28;20212;-79
2021/06/22 08:58:06;;;;;;;9.60;5.78;;;16.40;99.90;;;;;;5034958;28;20176;-77
2021/06/22 09:00:36;;;;;;;15.30;7.15;;;16.00;99.90;;;;;;5035712;28;20163;-79
2021/06/22 09:03:05;;;;;;;10.60;6.90;;;15.80;99.90;;;;;;5032063;28;20498;-77
2021/06/22 09:05:30;;;;;;;11.18;6.95;;;16.10;99.90;;;;;;5028659;28;20175;-78
2021/06/22 09:07:57;;;;;;;7.82;6.30;;;16.20;99.90;;;;;;5016068;28;20172;-82
2021/06/22 09:10:29;;;;;;;11.63;7.88;;;15.90;99.90;;;;;;5014690;28;20173;-78
2021/06/22 09:13:09;;;;;;;12.35;6.60;;;16.10;99.90;;;;;;5013737;28;20177;-80
2021/06/22 09:15:39;;;;;;;15.23;6.55;;;16.00;99.90;;;;;;5014544;28;20190;-82
2021/06/22 09:18:20;;;;;;;11.65;7.78;;;16.00;99.90;;;;;;5014664;28;20523;-82
2021/06/22 09:20:46;;;;;;;10.05;7.45;;;16.10;99.90;;;;;;5014857;28;20183;-82
2021/06/22 09:23:17;;;;;;;14.88;7.20;;;16.20;99.90;;;;;;5020453;28;20251;-83
2021/06/22 09:25:44;;;;;;;12.27;6.40;;;16.00;99.90;;;;;;5050775;28;20198;-84
2021/06/22 09:28:10;;;;;;;10.77;7.40;;;16.00;99.90;;;;;;5033675;28;20171;-83
2021/06/22 09:31:05;;;;;;;15.57;6.95;;;16.00;99.90;;;;;;5035323;28;20161;-85
2021/06/22 09:33:42;;;;;;;14.65;6.80;;;15.90;99.90;;;;;;5031494;28;20204;-84
2021/06/22 09:36:17;;;;;;;14.10;7.22;;;15.80;99.90;;;;;;5030442;28;20179;-83
2021/06/22 09:38:54;;;;;;;10.10;7.18;;;16.00;99.90;;;;;;5015185;28;20637;-84
2021/06/22 09:41:34;;;;;;;9.88;6.13;;;15.80;99.90;;;;;;5013479;28;20200;-84
2021/06/22 09:44:07;;;;;;;10.45;6.47;;;15.40;99.90;;;;;;5016160;28;20203;-83
2021/06/22 09:47:02;;;;;;;14.00;6.18;;;15.00;99.90;;;;;;5015011;28;20188;-82
2021/06/22 09:49:39;;;;;;;19.25;6.43;;;15.20;99.90;;;;;;5010614;28;20613;-82
2021/06/22 09:54:34;;;;;;;20.75;6.90;;;15.40;99.90;;;;;;5033868;28;20661;-84
2021/06/22 09:57:05;;;;;;;14.85;6.55;;;15.70;99.90;;;;;;5018668;28;20165;-85
2021/06/22 09:59:53;;;;;;;21.08;6.10;;;16.00;99.90;;;;;;5015336;28;20239;-85
2021/06/22 10:02:23;;;;;;;14.32;6.55;;;16.20;99.90;;;;;;5005300;28;20185;-85
2021/06/22 10:04:51;;;;;;;9.35;5.85;;;16.30;99.90;;;;;;5013897;28;20183;-86
2021/06/22 10:07:19;;;;;;;10.05;5.93;;;16.60;99.90;;;;;;5031585;28;20526;-80
2021/06/22 10:09:53;;;;;;;13.93;6.03;;;16.80;99.90;;;;;;5034383;28;20694;-86
2021/06/22 10:12:18;;;;;;;12.70;6.43;;;16.80;99.90;;;;;;5034017;28;20242;-87
2021/06/22 10:14:47;;;;;;;13.65;6.30;;;17.00;99.90;;;;;;5033573;28;20674;-86
2021/06/22 10:17:18;;;;;;;12.85;6.28;;;17.30;99.90;;;;;;5031663;28;20171;-86
2021/06/22 10:19:45;;;;;;;9.70;6.38;;;17.10;99.90;;;;;;5034281;28;20149;-84
2021/06/22 10:22:12;;;;;;;14.85;5.95;;;17.00;99.90;;;;;;5031708;28;20207;-89
2021/06/22 10:24:42;;;;;;;17.58;7.00;;;17.10;99.90;;;;;;5011444;28;20199;-83
2021/06/22 10:27:08;;;;;;;13.13;6.43;;;17.40;99.90;;;;;;4999104;28;20653;-84
2021/06/22 10:29:35;;;;;;;15.88;7.90;;;17.30;99.90;;;;;;5014637;28;20168;-83
2021/06/22 10:32:02;;;;;;;9.50;7.00;;;17.40;99.90;;;;;;5013282;28;20499;-82
2021/06/22 10:34:28;;;;;;;11.43;7.50;;;17.30;99.90;;;;;;5014492;28;20192;-82
2021/06/22 10:37:12;;;;;;;14.90;7.97;;;17.20;99.90;;;;;;5015793;28;20174;-81
2021/06/22 10:39:59;;;;;;;12.50;8.30;;;16.90;99.90;;;;;;5014753;28;20152;-84
2021/06/22 10:42:25;;;;;;;11.75;8.73;;;16.60;99.90;;;;;;5014642;28;20171;-87
2021/06/22 10:44:51;;;;;;;10.98;9.05;;;17.00;99.90;;;;;;5013163;28;20168;-88
2021/06/22 10:47:29;;;;;;;15.68;8.98;;;17.50;99.90;;;;;;5014775;28;20231;-85
2021/06/22 10:50:02;;;;;;;11.55;8.88;;;18.20;99.90;;;;;;5013424;28;20161;-87
2021/06/22 10:52:51;;;;;;;12.68;9.73;;;18.80;99.90;;;;;;5030342;28;20203;-85
2021/06/22 10:55:27;;;;;;;11.45;9.90;;;18.90;99.90;;;;;;5035922;28;20227;-87
2021/06/22 10:58:14;;;;;;;16.20;8.98;;;19.50;99.90;;;;;;5049870;28;20620;-88
2021/06/22 11:00:49;;;;;;;10.48;9.35;;;19.00;99.90;;;;;;5049822;28;20593;-87
2021/06/22 11:03:27;;;;;;;12.20;9.10;;;18.40;99.90;;;;;;5034404;28;20152;-90
2021/06/22 11:06:05;;;;;;;10.65;9.60;;;18.40;99.90;;;;;;5034366;28;20255;-87
2021/06/22 11:08:32;;;;;;;16.13;10.23;;;18.60;99.90;;;;;;5033957;28;20167;-91
2021/06/22 11:11:06;;;;;;;11.35;10.10;;;18.10;99.90;;;;;;5033861;28;20214;-88
2021/06/22 11:13:40;;;;;;;15.57;10.25;;;18.50;99.90;;;;;;5049463;28;20213;-87
2021/06/22 11:16:28;;;;;;;18.67;11.48;;;18.90;99.90;;;;;;5032593;28;20597;-79
2021/06/22 11:18:54;;;;;;;15.25;11.05;;;19.10;99.90;;;;;;5019392;28;20530;-80
2021/06/22 11:21:42;;;;;;;16.08;11.68;;;18.80;99.90;;;;;;5048284;28;20631;-78
2021/06/22 11:24:15;;;;;;;14.70;11.13;;;18.70;99.90;;;;;;5023085;28;20194;-79
2021/06/22 11:26:49;;;;;;;13.45;11.55;;;18.20;99.90;;;;;;5033391;28;20191;-79
2021/06/22 11:29:46;;;;;;;20.10;11.60;;;17.90;99.90;;;;;;5048409;28;20172;-78
2021/06/22 11:32:28;;;;;;;18.05;11.35;;;18.00;99.90;;;;;;5020863;28;20250;-79
2021/06/22 11:34:56;;;;;;;22.02;13.25;;;18.20;99.90;;;;;;5033324;28;20192;-83
2021/06/22 11:37:24;;;;;;;21.63;13.55;;;18.50;99.90;;;;;;5033410;28;20168;-88
2021/06/22 11:40:16;;;;;;;16.67;14.20;;;18.40;99.90;;;;;;5032626;28;20170;-90
2021/06/22 11:42:43;;;;;;;17.92;14.30;;;18.40;99.90;;;;;;5034376;28;20164;-89
2021/06/22 11:45:13;;;;;;;15.15;13.48;;;18.00;99.90;;;;;;5032504;28;20179;-89
2021/06/22 11:47:39;;;;;;;21.10;14.77;;;18.70;99.90;;;;;;5034077;28;20206;-90
2021/06/22 11:50:10;;;;;;;17.75;13.50;;;19.30;99.90;;;;;;5033110;28;20169;-87
2021/06/22 11:52:49;;;;;;;17.13;14.07;;;19.50;99.90;;;;;;5026673;28;20172;-85
2021/06/22 11:55:18;;;;;;;15.40;13.63;;;19.90;99.90;;;;;;5012536;28;20197;-87
2021/06/22 11:57:48;;;;;;;16.90;13.82;;;19.90;99.90;;;;;;5013835;28;20168;-86
2021/06/22 12:00:17;;;;;;;14.82;13.10;;;19.80;99.90;;;;;;5028826;28;20269;-86
2021/06/22 12:02:49;;;;;;;19.45;13.65;;;19.40;99.90;;;;;;5015269;28;20184;-78
2021/06/22 12:05:17;;;;;;;22.02;13.38;;;19.10;99.90;;;;;;5017166;28;20169;-79
2021/06/22 12:07:53;;;;;;;12.65;11.57;;;18.50;99.90;;;;;;5016752;28;20192;-79
2021/06/22 12:10:21;;;;;;;16.00;12.95;;;18.30;99.90;;;;;;5017218;28;20631;-79
2021/06/22 12:12:49;;;;;;;20.42;12.90;;;18.00;99.90;;;;;;5016837;28;20180;-79
2021/06/22 12:15:31;;;;;;;19.35;12.20;;;17.90;99.90;;;;;;4994439;28;20221;-79
2021/06/22 12:17:57;;;;;;;16.17;13.05;;;17.80;99.90;;;;;;4995117;28;20506;-78
2021/06/22 12:20:28;;;;;;;16.13;12.25;;;17.70;99.90;;;;;;4977818;28;20280;-80
2021/06/22 12:23:06;;;;;;;13.50;12.07;;;17.80;99.90;;;;;;4994209;28;20177;-78
2021/06/22 12:25:38;;;;;;;13.48;12.07;;;17.80;99.90;;;;;;4990747;28;20193;-79
2021/06/22 12:28:04;;;;;;;18.10;13.00;;;17.80;99.90;;;;;;5009154;28;20350;-82
2021/06/22 12:30:34;;;;;;;21.83;14.02;;;17.90;99.90;;;;;;5010863;28;20201;-81
2021/06/22 12:33:11;;;;;;;17.70;14.02;;;17.50;99.90;;;;;;5010271;28;20541;-83
2021/06/22 12:35:38;;;;;;;15.45;12.63;;;17.50;99.90;;;;;;4997576;28;20180;-82
2021/06/22 12:38:08;;;;;;;31.58;14.35;;;17.50;99.90;;;;;;5014147;28;20164;-81
2021/06/22 12:40:42;;;;;;;22.02;15.75;;;17.60;99.90;;;;;;4997114;28;20211;-81
2021/06/22 12:43:08;;;;;;;19.50;15.23;;;17.80;99.90;;;;;;5013956;28;20180;-81
2021/06/22 12:45:34;;;;;;;17.90;15.48;;;17.70;99.90;;;;;;4984449;28;20180;-81
2021/06/22 12:48:00;;;;;;;22.63;17.55;;;17.50;99.90;;;;;;5031076;28;20310;-83